createdAt,value
2019-03-30T00:00:47.867Z,54.37
2019-03-30T00:03:18.679Z,52.73
2019-03-30T00:05:49.792Z,52.40
2019-03-30T00:08:20.579Z,50.53
2019-03-30T00:10:52.613Z,49.10
2019-03-30T00:13:23.431Z,53.77
2019-03-30T00:15:54.639Z,53.30
2019-03-30T00:18:25.819Z,50.37
2019-03-30T00:20:56.607Z,50.10
2019-03-30T00:23:27.760Z,52.27
2019-03-30T00:25:58.518Z,51.20
2019-03-30T00:28:29.693Z,49.97
2019-03-30T00:31:00.843Z,52.23
2019-03-30T00:33:33.327Z,50.57
2019-03-30T00:36:04.038Z,49.80
2019-03-30T00:38:34.806Z,48.97
2019-03-30T00:41:05.508Z,52.17
2019-03-30T00:43:36.968Z,51.17
2019-03-30T00:46:09.091Z,47.83
2019-03-30T00:48:40.338Z,50.53
2019-03-30T00:51:11.205Z,48.90
2019-03-30T00:53:42.084Z,51.83
2019-03-30T00:56:13.357Z,54.73
2019-03-30T00:58:44.133Z,51.53
2019-03-30T01:01:14.901Z,50.27
2019-03-30T01:03:45.598Z,52.83
2019-03-30T01:06:16.684Z,50.70
2019-03-30T01:08:47.552Z,54.50
2019-03-30T01:11:18.973Z,50.83
2019-03-30T01:13:49.751Z,54.87
2019-03-30T01:16:20.777Z,55.13
2019-03-30T01:18:52.419Z,55.13
2019-03-30T01:21:23.219Z,52.67
2019-03-30T01:23:53.997Z,51.50
2019-03-30T01:26:24.751Z,54.33
2019-03-30T01:28:55.804Z,52.40
2019-03-30T01:31:27.159Z,51.33
2019-03-30T01:33:58.082Z,51.97
2019-03-30T01:36:29.137Z,52.67
2019-03-30T01:38:59.970Z,51.83
2019-03-30T01:41:30.718Z,51.10
2019-03-30T01:44:01.530Z,52.90
2019-03-30T01:46:32.393Z,51.00
2019-03-30T01:49:03.150Z,51.70
2019-03-30T01:51:33.903Z,51.07
2019-03-30T01:54:04.663Z,49.90
2019-03-30T01:56:35.896Z,52.03
2019-03-30T01:59:06.922Z,49.77
2019-03-30T02:01:38.205Z,52.40
2019-03-30T02:04:09.054Z,54.07
2019-03-30T02:06:42.691Z,51.10
2019-03-30T02:09:13.504Z,52.73
2019-03-30T02:11:44.276Z,52.93
2019-03-30T02:14:15.414Z,55.93
2019-03-30T02:16:46.077Z,51.43
2019-03-30T02:19:16.747Z,51.30
2019-03-30T02:21:47.502Z,51.70
2019-03-30T02:24:18.669Z,49.97
2019-03-30T02:26:49.414Z,49.47
2019-03-30T02:29:20.606Z,50.83
2019-03-30T02:31:51.695Z,50.63
2019-03-30T02:34:22.489Z,50.13
2019-03-30T02:36:53.689Z,49.77
2019-03-30T02:39:24.496Z,51.40
2019-03-30T02:41:55.978Z,48.73
2019-03-30T02:44:26.740Z,48.17
2019-03-30T02:46:57.844Z,47.57
2019-03-30T02:49:28.966Z,49.03
2019-03-30T02:52:00.169Z,49.33
2019-03-30T02:54:30.897Z,46.00
2019-03-30T02:57:01.806Z,48.03
2019-03-30T02:59:32.464Z,52.23
2019-03-30T03:02:03.297Z,49.40
2019-03-30T03:04:34.342Z,49.33
2019-03-30T03:07:05.183Z,46.73
2019-03-30T03:09:35.942Z,50.13
2019-03-30T03:12:06.784Z,49.33
2019-03-30T03:14:38.422Z,48.30
2019-03-30T03:17:09.566Z,46.50
2019-03-30T03:19:40.633Z,47.80
2019-03-30T03:22:11.403Z,46.73
2019-03-30T03:24:42.160Z,45.20
2019-03-30T03:27:12.932Z,50.43
2019-03-30T03:29:44.281Z,53.33
2019-03-30T03:32:15.121Z,54.30
2019-03-30T03:34:45.906Z,53.70
2019-03-30T03:37:17.003Z,52.90
2019-03-30T03:39:48.137Z,47.40
2019-03-30T03:42:19.218Z,49.87
2019-03-30T03:44:50.013Z,50.93
2019-03-30T03:47:20.759Z,49.93
2019-03-30T03:49:52.288Z,50.27
2019-03-30T03:52:23.116Z,51.07
2019-03-30T03:54:55.453Z,50.77
2019-03-30T03:57:28.660Z,46.80
2019-03-30T04:00:01.974Z,50.20
2019-03-30T04:02:37.066Z,49.57
2019-03-30T04:05:09.709Z,50.00
2019-03-30T04:07:43.379Z,52.10
2019-03-30T04:10:14.466Z,49.80
2019-03-30T04:12:47.149Z,50.53
2019-03-30T04:15:27.179Z,47.03
2019-03-30T04:17:58.373Z,48.67
2019-03-30T04:20:29.523Z,45.93
2019-03-30T04:23:00.631Z,50.33
2019-03-30T04:25:31.500Z,49.23
2019-03-30T04:28:02.613Z,46.63
2019-03-30T04:30:33.407Z,50.07
2019-03-30T04:33:04.197Z,50.33
2019-03-30T04:35:35.035Z,48.67
2019-03-30T04:38:05.838Z,47.67
2019-03-30T04:40:36.725Z,49.47
2019-03-30T04:43:07.864Z,49.50
2019-03-30T04:45:39.004Z,46.60
2019-03-30T04:48:09.782Z,49.10
2019-03-30T04:50:40.613Z,52.10
2019-03-30T04:53:11.673Z,51.27
2019-03-30T04:55:42.472Z,47.77
2019-03-30T04:58:13.263Z,49.30
2019-03-30T05:00:44.378Z,44.67
2019-03-30T05:03:15.210Z,49.40
2019-03-30T05:05:45.964Z,48.33
2019-03-30T05:08:16.780Z,47.60
2019-03-30T05:10:47.526Z,49.13
2019-03-30T05:13:18.696Z,47.10
2019-03-30T05:15:49.504Z,46.27
2019-03-30T05:18:20.308Z,47.40
2019-03-30T05:20:51.004Z,45.53
2019-03-30T05:23:23.254Z,47.73
2019-03-30T05:25:54.319Z,46.00
2019-03-30T05:28:25.122Z,44.97
2019-03-30T05:30:56.109Z,46.93
2019-03-30T05:33:27.094Z,46.53
2019-03-30T05:35:58.243Z,45.17
2019-03-30T05:38:29.046Z,44.83
2019-03-30T05:40:59.825Z,46.37
2019-03-30T05:43:31.029Z,47.33
2019-03-30T05:46:01.871Z,46.37
2019-03-30T05:48:32.672Z,45.13
2019-03-30T05:51:03.883Z,48.77
2019-03-30T05:53:34.681Z,48.23
2019-03-30T05:56:06.084Z,45.60
2019-03-30T05:58:36.784Z,49.03
2019-03-30T06:01:07.977Z,46.50
2019-03-30T06:03:39.106Z,45.77
2019-03-30T06:06:09.907Z,45.23
2019-03-30T06:08:41.092Z,45.07
2019-03-30T06:11:11.896Z,44.47
2019-03-30T06:13:42.674Z,45.90
2019-03-30T06:16:14.948Z,45.07
2019-03-30T06:18:46.080Z,45.43
2019-03-30T06:21:17.203Z,45.03
2019-03-30T06:23:48.708Z,46.10
2019-03-30T06:26:20.077Z,45.70
2019-03-30T06:28:50.849Z,45.87
2019-03-30T06:31:21.690Z,46.03
2019-03-30T06:33:52.491Z,46.43
2019-03-30T06:36:23.318Z,46.03
2019-03-30T06:38:54.464Z,45.47
2019-03-30T06:41:25.255Z,46.23
2019-03-30T06:43:56.036Z,45.70
2019-03-30T06:46:26.832Z,44.60
2019-03-30T06:48:57.582Z,45.03
2019-03-30T06:51:29.099Z,43.83
2019-03-30T06:53:59.771Z,47.63
2019-03-30T06:56:30.602Z,46.07
2019-03-30T06:59:01.380Z,45.17
2019-03-30T07:01:32.218Z,45.20
2019-03-30T07:04:03.022Z,48.43
2019-03-30T07:06:34.346Z,45.30
2019-03-30T07:09:06.487Z,44.33
2019-03-30T07:11:42.597Z,44.07
2019-03-30T07:14:13.704Z,43.97
2019-03-30T07:16:45.919Z,42.97
2019-03-30T07:19:16.835Z,40.03
2019-03-30T07:21:49.067Z,41.53
2019-03-30T07:24:20.169Z,40.90
2019-03-30T07:26:50.945Z,39.07
2019-03-30T07:29:22.647Z,38.43
2019-03-30T07:31:53.494Z,37.37
2019-03-30T07:34:24.668Z,37.23
2019-03-30T07:36:55.408Z,34.60
2019-03-30T07:39:26.235Z,36.47
2019-03-30T07:41:57.398Z,35.13
2019-03-30T07:44:28.262Z,35.60
2019-03-30T07:46:59.082Z,33.73
2019-03-30T07:49:30.687Z,34.17
2019-03-30T07:52:01.437Z,34.27
2019-03-30T07:54:32.635Z,34.90
2019-03-30T07:57:07.079Z,33.90
2019-03-30T07:59:36.337Z,32.80
2019-03-30T08:02:07.473Z,32.87
2019-03-30T08:04:38.729Z,33.03
2019-03-30T08:07:09.902Z,33.40
2019-03-30T08:09:40.748Z,31.17
2019-03-30T08:12:11.552Z,30.90
2019-03-30T08:14:45.118Z,30.77
2019-03-30T08:17:15.134Z,32.17
2019-03-30T08:19:45.984Z,32.00
2019-03-30T08:22:17.221Z,29.37
2019-03-30T08:24:47.985Z,29.93
2019-03-30T08:27:18.851Z,29.83
2019-03-30T08:29:49.918Z,31.70
2019-03-30T08:32:20.789Z,28.30
2019-03-30T08:34:52.808Z,29.67
2019-03-30T08:37:23.630Z,30.43
2019-03-30T08:39:54.465Z,28.63
2019-03-30T08:42:25.266Z,27.73
2019-03-30T08:44:56.004Z,29.50
2019-03-30T08:47:27.048Z,30.47
2019-03-30T08:49:57.906Z,29.50
2019-03-30T08:52:29.227Z,29.67
2019-03-30T08:55:00.366Z,29.47
2019-03-30T08:57:31.196Z,29.80
2019-03-30T09:00:02.935Z,28.77
2019-03-30T09:02:33.710Z,28.40
2019-03-30T09:05:04.926Z,26.83
2019-03-30T09:07:35.731Z,25.17
2019-03-30T09:10:07.908Z,27.50
2019-03-30T09:12:39.275Z,28.20
2019-03-30T09:15:10.680Z,28.37
2019-03-30T09:17:41.471Z,28.03
2019-03-30T09:20:13.066Z,28.43
2019-03-30T09:22:43.868Z,30.23
2019-03-30T09:25:15.319Z,28.73
2019-03-30T09:27:46.176Z,29.53
2019-03-30T09:30:16.926Z,28.47
2019-03-30T09:32:48.100Z,30.27
2019-03-30T09:35:18.884Z,29.63
2019-03-30T09:37:49.725Z,29.17
2019-03-30T09:40:20.501Z,26.80
2019-03-30T09:42:51.279Z,26.60
2019-03-30T09:45:21.996Z,26.37
2019-03-30T09:47:53.205Z,26.23
2019-03-30T09:50:24.002Z,26.53
2019-03-30T09:52:54.803Z,25.90
2019-03-30T09:55:27.197Z,26.27
2019-03-30T09:57:58.037Z,27.87
2019-03-30T10:00:28.848Z,25.27
2019-03-30T10:02:59.659Z,25.93
2019-03-30T10:05:32.123Z,23.90
2019-03-30T10:08:04.251Z,24.20
2019-03-30T10:10:35.021Z,24.97
2019-03-30T10:13:05.828Z,23.43
2019-03-30T10:15:38.740Z,22.73
2019-03-30T10:18:09.561Z,24.13
2019-03-30T10:20:40.424Z,21.97
2019-03-30T10:23:11.574Z,22.37
2019-03-30T10:25:43.078Z,21.97
2019-03-30T10:28:13.884Z,23.23
2019-03-30T10:30:44.954Z,22.30
2019-03-30T10:33:16.564Z,22.77
2019-03-30T10:35:47.734Z,23.13
2019-03-30T10:38:18.500Z,22.57
2019-03-30T10:40:49.343Z,24.17
2019-03-30T10:43:20.439Z,20.97
2019-03-30T10:45:51.261Z,20.93
2019-03-30T10:48:22.028Z,18.20
2019-03-30T10:50:53.295Z,18.90
2019-03-30T10:53:24.071Z,20.03
2019-03-30T10:55:54.925Z,18.50
2019-03-30T10:58:25.710Z,19.00
2019-03-30T11:00:56.788Z,18.67
2019-03-30T11:03:27.619Z,20.93
2019-03-30T11:05:58.689Z,18.23
2019-03-30T11:08:29.525Z,19.47
2019-03-30T11:11:00.650Z,19.53
2019-03-30T11:13:31.460Z,20.00
2019-03-30T11:16:02.383Z,19.03
2019-03-30T11:18:34.145Z,20.67
2019-03-30T11:21:05.209Z,19.90
2019-03-30T11:23:36.012Z,19.83
2019-03-30T11:26:06.820Z,21.07
2019-03-30T11:28:37.903Z,19.80
2019-03-30T11:31:09.159Z,19.97
2019-03-30T11:33:39.895Z,19.23
2019-03-30T11:36:10.726Z,17.67
2019-03-30T11:38:41.557Z,19.30
2019-03-30T11:41:12.350Z,19.83
2019-03-30T11:43:43.179Z,19.43
2019-03-30T11:46:13.948Z,22.80
2019-03-30T11:48:44.818Z,23.47
2019-03-30T11:51:15.980Z,24.47
2019-03-30T11:53:47.141Z,21.60
2019-03-30T11:56:17.934Z,21.90
2019-03-30T11:58:48.760Z,22.83
2019-03-30T12:01:21.827Z,22.57
2019-03-30T12:03:51.976Z,20.93
2019-03-30T12:06:23.205Z,23.77
2019-03-30T12:08:54.020Z,22.93
2019-03-30T12:11:25.105Z,21.90
2019-03-30T12:13:55.910Z,20.57
2019-03-30T12:16:27.021Z,21.90
2019-03-30T12:18:57.801Z,20.63
2019-03-30T12:21:28.940Z,22.27
2019-03-30T12:23:59.993Z,21.13
2019-03-30T12:26:31.011Z,22.37
2019-03-30T12:29:01.798Z,19.47
2019-03-30T12:31:32.644Z,20.77
2019-03-30T12:34:03.471Z,18.27
2019-03-30T12:36:34.261Z,16.93
2019-03-30T12:39:07.038Z,18.57
2019-03-30T12:41:38.228Z,19.03
2019-03-30T12:44:09.021Z,17.87
2019-03-30T12:46:40.137Z,18.30
2019-03-30T12:49:10.935Z,19.13
2019-03-30T12:51:42.067Z,19.50
2019-03-30T12:54:13.312Z,18.00
2019-03-30T12:56:44.138Z,19.70
2019-03-30T12:59:15.009Z,19.27
2019-03-30T13:01:46.213Z,19.57
2019-03-30T13:04:16.962Z,20.03
2019-03-30T13:06:48.084Z,21.87
2019-03-30T13:09:19.260Z,21.23
2019-03-30T13:11:50.060Z,19.23
2019-03-30T13:14:21.212Z,20.47
2019-03-30T13:16:52.998Z,19.67
2019-03-30T13:19:23.754Z,18.40
2019-03-30T13:21:54.553Z,19.27
2019-03-30T13:24:25.301Z,18.07
2019-03-30T13:26:56.446Z,17.67
2019-03-30T13:29:27.198Z,17.50
2019-03-30T13:31:57.996Z,16.70
2019-03-30T13:34:28.810Z,19.13
2019-03-30T13:36:59.930Z,17.83
2019-03-30T13:39:30.743Z,19.93
2019-03-30T13:42:01.397Z,19.13
2019-03-30T13:44:32.206Z,20.77
2019-03-30T13:47:03.017Z,18.23
2019-03-30T13:49:33.780Z,16.87
2019-03-30T13:52:04.958Z,17.00
2019-03-30T13:54:38.675Z,16.53
2019-03-30T13:57:08.573Z,18.27
2019-03-30T13:59:39.772Z,18.63
2019-03-30T14:02:10.551Z,17.63
2019-03-30T14:04:41.934Z,18.07
2019-03-30T14:07:12.637Z,17.57
2019-03-30T14:09:43.479Z,18.57
2019-03-30T14:12:14.689Z,18.00
2019-03-30T14:14:45.499Z,19.67
2019-03-30T14:17:16.255Z,19.57
2019-03-30T14:19:47.103Z,17.87
2019-03-30T14:22:17.927Z,16.23
2019-03-30T14:24:48.750Z,18.77
2019-03-30T14:27:19.638Z,16.97
2019-03-30T14:29:52.924Z,17.93
2019-03-30T14:32:23.220Z,18.90
2019-03-30T14:34:53.992Z,17.60
2019-03-30T14:37:25.113Z,26.43
2019-03-30T14:39:55.913Z,31.93
2019-03-30T14:42:27.092Z,34.20
2019-03-30T14:44:58.255Z,33.53
2019-03-30T14:47:29.128Z,30.43
2019-03-30T14:49:59.961Z,28.47
2019-03-30T14:52:31.213Z,30.60
2019-03-30T14:55:02.452Z,29.13
2019-03-30T14:57:33.178Z,30.27
2019-03-30T15:00:04.153Z,31.00
2019-03-30T15:02:35.677Z,30.90
2019-03-30T15:05:08.412Z,30.27
2019-03-30T15:07:39.698Z,27.83
2019-03-30T15:10:11.122Z,28.23
2019-03-30T15:12:42.082Z,28.10
2019-03-30T15:15:14.445Z,27.93
2019-03-30T15:17:45.556Z,28.47
2019-03-30T15:20:16.404Z,32.03
2019-03-30T15:22:47.207Z,30.23
2019-03-30T15:25:18.326Z,30.20
2019-03-30T15:27:49.012Z,26.30
2019-03-30T15:30:19.829Z,25.57
2019-03-30T15:32:51.467Z,25.00
2019-03-30T15:35:22.207Z,24.70
2019-03-30T15:37:53.055Z,23.30
2019-03-30T15:40:23.862Z,25.80
2019-03-30T15:42:54.683Z,26.37
2019-03-30T15:45:25.492Z,32.70
2019-03-30T15:47:56.291Z,34.50
2019-03-30T15:50:27.086Z,36.17
2019-03-30T15:52:58.202Z,38.00
2019-03-30T15:55:29.034Z,38.23
2019-03-30T15:57:59.839Z,37.77
2019-03-30T16:00:30.671Z,37.70
2019-03-30T16:03:01.539Z,40.00
2019-03-30T16:05:32.257Z,36.40
2019-03-30T16:08:03.037Z,40.73
2019-03-30T16:10:52.648Z,38.57
2019-03-30T16:13:23.425Z,37.67
2019-03-30T16:15:54.181Z,37.40
2019-03-30T16:18:25.061Z,35.30
2019-03-30T16:20:55.866Z,39.17
2019-03-30T16:23:26.987Z,39.23
2019-03-30T16:25:58.044Z,39.97
2019-03-30T16:28:29.125Z,38.07
2019-03-30T16:31:00.293Z,44.70
2019-03-30T16:33:31.403Z,42.43
2019-03-30T16:36:02.990Z,37.70
2019-03-30T16:38:33.729Z,38.10
2019-03-30T16:41:04.549Z,37.30
2019-03-30T16:43:35.699Z,38.60
2019-03-30T16:46:06.802Z,39.07
2019-03-30T16:48:37.579Z,39.97
2019-03-30T16:51:08.338Z,38.23
2019-03-30T16:53:39.432Z,36.40
2019-03-30T16:56:10.569Z,37.87
2019-03-30T16:58:41.412Z,39.30
2019-03-30T17:01:12.476Z,39.67
2019-03-30T17:03:43.750Z,39.97
2019-03-30T17:06:14.510Z,39.53
2019-03-30T17:08:45.360Z,39.73
2019-03-30T17:11:16.195Z,39.03
2019-03-30T17:13:47.382Z,37.63
2019-03-30T17:16:18.789Z,39.37
2019-03-30T17:18:49.982Z,40.07
2019-03-30T17:21:20.777Z,37.70
2019-03-30T17:23:51.558Z,34.23
2019-03-30T17:26:22.687Z,38.57
2019-03-30T17:28:53.902Z,38.50
2019-03-30T17:31:24.774Z,38.60
2019-03-30T17:33:55.796Z,39.37
2019-03-30T17:36:26.610Z,38.30
2019-03-30T17:38:57.490Z,40.37
2019-03-30T17:41:28.669Z,38.33
2019-03-30T17:43:59.465Z,37.47
2019-03-30T17:46:30.304Z,36.03
2019-03-30T17:49:01.066Z,36.60
2019-03-30T17:51:32.215Z,40.37
2019-03-30T17:54:03.026Z,38.13
2019-03-30T17:56:34.197Z,39.47
2019-03-30T17:59:05.372Z,39.13
2019-03-30T18:01:36.168Z,38.67
2019-03-30T18:04:06.991Z,38.60
2019-03-30T18:06:37.821Z,38.13
2019-03-30T18:09:08.651Z,36.37
2019-03-30T18:11:39.442Z,37.50
2019-03-30T18:14:10.629Z,38.10
2019-03-30T18:16:41.501Z,37.40
2019-03-30T18:19:12.688Z,40.30
2019-03-30T18:21:43.771Z,42.67
2019-03-30T18:24:14.929Z,44.97
2019-03-30T18:26:46.713Z,43.27
2019-03-30T18:29:17.833Z,41.33
2019-03-30T18:31:48.919Z,40.07
2019-03-30T18:34:19.812Z,38.90
2019-03-30T18:36:52.541Z,38.37
2019-03-30T18:39:23.624Z,36.97
2019-03-30T18:41:54.439Z,38.07
2019-03-30T18:44:25.673Z,38.10
2019-03-30T18:46:56.791Z,37.13
2019-03-30T18:49:27.665Z,38.93
2019-03-30T18:51:58.485Z,38.73
2019-03-30T18:54:30.513Z,38.13
2019-03-30T18:57:01.305Z,37.83
2019-03-30T18:59:32.137Z,39.97
2019-03-30T19:02:02.908Z,39.93
2019-03-30T19:04:33.769Z,39.03
2019-03-30T19:07:04.601Z,37.73
2019-03-30T19:09:35.427Z,41.50
2019-03-30T19:12:06.542Z,37.50
2019-03-30T19:14:37.316Z,41.67
2019-03-30T19:17:08.514Z,41.70
2019-03-30T19:19:39.377Z,41.93
2019-03-30T19:22:10.192Z,41.17
2019-03-30T19:24:40.962Z,38.93
2019-03-30T19:27:11.771Z,42.07
2019-03-30T19:29:42.583Z,37.67
2019-03-30T19:32:13.411Z,39.03
2019-03-30T19:34:44.332Z,38.77
2019-03-30T19:37:15.137Z,37.03
2019-03-30T19:39:46.244Z,36.33
2019-03-30T19:42:17.706Z,35.17
2019-03-30T19:44:48.574Z,36.17
2019-03-30T19:47:19.460Z,36.00
2019-03-30T19:49:50.966Z,38.13
2019-03-30T19:52:21.823Z,36.80
2019-03-30T19:54:53.344Z,36.20
2019-03-30T19:57:27.439Z,35.50
2019-03-30T19:59:56.816Z,35.73
2019-03-30T20:02:27.666Z,36.97
2019-03-30T20:04:58.507Z,37.43
2019-03-30T20:07:29.387Z,35.97
2019-03-30T20:10:00.350Z,37.07
2019-03-30T20:12:31.340Z,37.30
2019-03-30T20:15:02.144Z,36.20
2019-03-30T20:17:33.267Z,37.90
2019-03-30T20:20:04.865Z,38.97
2019-03-30T20:22:35.653Z,38.10
2019-03-30T20:25:07.981Z,38.17
2019-03-30T20:27:38.830Z,38.40
2019-03-30T20:30:11.301Z,40.47
2019-03-30T20:32:43.219Z,38.43
2019-03-30T20:35:14.162Z,39.43
2019-03-30T20:37:44.984Z,37.83
2019-03-30T20:40:16.211Z,36.37
2019-03-30T20:42:47.446Z,36.47
2019-03-30T20:45:18.268Z,39.27
2019-03-30T20:47:49.410Z,37.37
2019-03-30T20:50:20.164Z,37.77
2019-03-30T20:52:51.294Z,37.27
2019-03-30T20:55:22.456Z,38.67
2019-03-30T20:57:53.335Z,37.87
2019-03-30T21:00:24.114Z,41.10
2019-03-30T21:02:54.882Z,38.87
2019-03-30T21:05:25.702Z,38.00
2019-03-30T21:07:56.854Z,39.77
2019-03-30T21:10:28.043Z,38.10
2019-03-30T21:12:59.132Z,38.07
2019-03-30T21:15:30.024Z,38.10
2019-03-30T21:18:00.805Z,36.33
2019-03-30T21:20:31.634Z,35.70
2019-03-30T21:23:02.431Z,36.93
2019-03-30T21:25:33.304Z,37.00
2019-03-30T21:28:04.117Z,37.23
2019-03-30T21:30:34.930Z,37.87
2019-03-30T21:33:06.183Z,38.58
2019-03-30T21:35:37.325Z,37.60
2019-03-30T21:38:08.181Z,37.37
2019-03-30T21:40:39.068Z,38.83
2019-03-30T21:43:09.921Z,37.67
2019-03-30T21:45:41.054Z,36.23
2019-03-30T21:48:11.885Z,34.90
2019-03-30T21:50:42.649Z,36.77
2019-03-30T21:53:13.389Z,36.90
2019-03-30T21:55:44.195Z,36.17
2019-03-30T21:58:15.017Z,37.13
2019-03-30T22:00:45.817Z,34.10
2019-03-30T22:03:16.610Z,35.77
2019-03-30T22:05:47.428Z,35.77
2019-03-30T22:08:18.663Z,35.63
2019-03-30T22:10:49.539Z,37.53
2019-03-30T22:13:21.791Z,37.13
2019-03-30T22:15:52.602Z,36.47
2019-03-30T22:18:23.402Z,37.63
2019-03-30T22:20:54.512Z,36.67
2019-03-30T22:23:25.293Z,36.17
2019-03-30T22:25:56.125Z,36.70
2019-03-30T22:28:26.957Z,36.67
2019-03-30T22:30:57.783Z,39.00
2019-03-30T22:33:30.790Z,38.93
2019-03-30T22:36:01.771Z,36.63
2019-03-30T22:38:32.601Z,37.63
2019-03-30T22:41:03.424Z,39.93
2019-03-30T22:43:34.502Z,39.23
2019-03-30T22:46:07.559Z,39.27
2019-03-30T22:48:38.212Z,38.13
2019-03-30T22:51:09.400Z,37.67
2019-03-30T22:53:40.732Z,38.73
2019-03-30T22:56:11.500Z,41.67
2019-03-30T22:58:42.202Z,40.97
2019-03-30T23:01:15.832Z,38.87
2019-03-30T23:03:47.058Z,38.40
2019-03-30T23:06:18.280Z,42.67
2019-03-30T23:08:49.035Z,40.47
2019-03-30T23:11:19.889Z,39.13
2019-03-30T23:13:50.659Z,40.43
2019-03-30T23:16:21.461Z,42.00
2019-03-30T23:18:53.012Z,39.20
2019-03-30T23:21:23.879Z,40.87
2019-03-30T23:23:54.658Z,41.40
2019-03-30T23:26:25.462Z,41.43
2019-03-30T23:28:59.287Z,41.77
2019-03-30T23:31:29.054Z,42.83
2019-03-30T23:34:00.140Z,39.97
2019-03-30T23:36:30.866Z,40.93
2019-03-30T23:39:01.558Z,39.63
2019-03-30T23:41:32.629Z,41.67
2019-03-30T23:44:03.547Z,42.93
2019-03-30T23:46:34.731Z,41.67
2019-03-30T23:49:05.508Z,40.27
2019-03-30T23:51:36.583Z,42.07
2019-03-30T23:54:11.577Z,41.23
2019-03-30T23:56:42.645Z,44.53
2019-03-30T23:59:13.777Z,44.97
